createdAt,value
2019-01-03T00:00:03.189Z,1037.23
2019-01-03T00:00:28.758Z,1037.28
2019-01-03T00:00:54.351Z,1037.29
2019-01-03T00:01:19.924Z,1037.29
2019-01-03T00:01:45.512Z,1037.28
2019-01-03T00:02:11.114Z,1037.3
2019-01-03T00:02:36.660Z,1037.32
2019-01-03T00:03:02.234Z,1037.31
2019-01-03T00:03:27.820Z,1037.33
2019-01-03T00:03:53.941Z,1037.36
2019-01-03T00:04:18.952Z,1037.36
2019-01-03T00:04:44.524Z,1037.38
2019-01-03T00:05:10.135Z,1037.37
2019-01-03T00:05:35.736Z,1037.37
2019-01-03T00:06:01.306Z,1037.38
2019-01-03T00:06:26.888Z,1037.39
2019-01-03T00:06:52.463Z,1037.38
2019-01-03T00:07:18.040Z,1037.4
2019-01-03T00:07:43.623Z,1037.39
2019-01-03T00:08:09.191Z,1037.4
2019-01-03T00:08:34.747Z,1037.4
2019-01-03T00:09:00.328Z,1037.43
2019-01-03T00:09:25.903Z,1037.41
2019-01-03T00:09:51.484Z,1037.41
2019-01-03T00:10:17.055Z,1037.42
2019-01-03T00:10:42.622Z,1037.43
2019-01-03T00:11:08.212Z,1037.41
2019-01-03T00:11:33.767Z,1037.42
2019-01-03T00:11:59.341Z,1037.44
2019-01-03T00:12:24.907Z,1037.36
2019-01-03T00:12:50.457Z,1037.32
2019-01-03T00:13:16.029Z,1037.37
2019-01-03T00:13:41.613Z,1037.3
2019-01-03T00:14:07.181Z,1037.29
2019-01-03T00:14:32.742Z,1037.3
2019-01-03T00:14:58.310Z,1037.26
2019-01-03T00:15:23.884Z,1037.26
2019-01-03T00:15:49.454Z,1037.23
2019-01-03T00:16:15.017Z,1037.22
2019-01-03T00:16:40.612Z,1037.24
2019-01-03T00:17:06.180Z,1037.23
2019-01-03T00:17:31.760Z,1037.17
2019-01-03T00:17:57.328Z,1037.24
2019-01-03T00:18:22.908Z,1037.19
2019-01-03T00:18:48.489Z,1037.17
2019-01-03T00:19:14.068Z,1037.16
2019-01-03T00:19:39.668Z,1037.1
2019-01-03T00:20:05.232Z,1037.15
2019-01-03T00:20:30.806Z,1037.19
2019-01-03T00:20:56.383Z,1037.17
2019-01-03T00:21:21.959Z,1037.19
2019-01-03T00:21:47.544Z,1037.16
2019-01-03T00:22:13.116Z,1037.15
2019-01-03T00:22:38.697Z,1037.14
2019-01-03T00:23:04.258Z,1037.18
2019-01-03T00:23:29.841Z,1037.14
2019-01-03T00:23:55.436Z,1037.13
2019-01-03T00:24:21.026Z,1037.16
2019-01-03T00:24:46.598Z,1037.14
2019-01-03T00:25:12.180Z,1037.17
2019-01-03T00:25:37.750Z,1037.14
2019-01-03T00:26:03.326Z,1037.18
2019-01-03T00:26:28.899Z,1037.23
2019-01-03T00:26:54.475Z,1037.17
2019-01-03T00:27:20.044Z,1037.22
2019-01-03T00:27:45.625Z,1037.22
2019-01-03T00:28:11.287Z,1037.23
2019-01-03T00:28:36.784Z,1037.19
2019-01-03T00:29:02.354Z,1037.22
2019-01-03T00:29:27.938Z,1037.24
2019-01-03T00:29:53.501Z,1037.25
2019-01-03T00:30:19.083Z,1037.25
2019-01-03T00:30:44.651Z,1037.23
2019-01-03T00:31:10.274Z,1037.21
2019-01-03T00:31:35.859Z,1037.21
2019-01-03T00:32:01.450Z,1037.19
2019-01-03T00:32:27.000Z,1037.2
2019-01-03T00:32:52.573Z,1037.18
2019-01-03T00:33:18.139Z,1037.17
2019-01-03T00:33:43.692Z,1037.17
2019-01-03T00:34:09.276Z,1037.17
2019-01-03T00:34:34.866Z,1037.18
2019-01-03T00:35:00.425Z,1037.12
2019-01-03T00:35:26.001Z,1037.13
2019-01-03T00:35:51.650Z,1037.15
2019-01-03T00:36:17.230Z,1037.11
2019-01-03T00:36:42.804Z,1037.08
2019-01-03T00:37:08.433Z,1037.1
2019-01-03T00:37:33.960Z,1037.08
2019-01-03T00:37:59.548Z,1037.08
2019-01-03T00:38:25.137Z,1037.13
2019-01-03T00:38:50.710Z,1037.11
2019-01-03T00:39:16.293Z,1037.13
2019-01-03T00:39:41.874Z,1037.12
2019-01-03T00:40:07.445Z,1037.11
2019-01-03T00:40:33.035Z,1037.11
2019-01-03T00:40:58.621Z,1037.1
2019-01-03T00:41:24.193Z,1037.15
2019-01-03T00:41:49.777Z,1037.13
2019-01-03T00:42:15.375Z,1037.13
2019-01-03T00:42:40.949Z,1037.12
2019-01-03T00:43:06.517Z,1037.15
2019-01-03T00:43:32.097Z,1037.18
2019-01-03T00:43:57.677Z,1037.14
2019-01-03T00:44:23.247Z,1037.19
2019-01-03T00:44:48.843Z,1037.18
2019-01-03T00:45:14.400Z,1037.18
2019-01-03T00:45:39.983Z,1037.16
2019-01-03T00:46:05.595Z,1037.13
2019-01-03T00:46:31.162Z,1037.13
2019-01-03T00:46:56.736Z,1037.1
2019-01-03T00:47:22.328Z,1037.12
2019-01-03T00:47:47.898Z,1037.13
2019-01-03T00:48:13.474Z,1037.11
2019-01-03T00:48:39.059Z,1037.11
2019-01-03T00:49:04.625Z,1037.09
2019-01-03T00:49:30.217Z,1037.14
2019-01-03T00:49:55.787Z,1037.13
2019-01-03T00:50:21.371Z,1037.14
2019-01-03T00:50:46.935Z,1037.15
2019-01-03T00:51:12.534Z,1037.12
2019-01-03T00:51:38.096Z,1037.11
2019-01-03T00:52:03.672Z,1037.11
2019-01-03T00:52:29.247Z,1037.11
2019-01-03T00:52:54.819Z,1037.13
2019-01-03T00:53:20.411Z,1037.11
2019-01-03T00:53:45.991Z,1037.11
2019-01-03T00:54:11.563Z,1037.13
2019-01-03T00:54:37.142Z,1037.08
2019-01-03T00:55:02.713Z,1037.08
2019-01-03T00:55:28.292Z,1037.09
2019-01-03T00:55:53.872Z,1037.1
2019-01-03T00:56:19.447Z,1037.09
2019-01-03T00:56:45.023Z,1037.06
2019-01-03T00:57:10.610Z,1037.09
2019-01-03T00:57:36.203Z,1037.07
2019-01-03T00:58:01.781Z,1037.08
2019-01-03T00:58:27.350Z,1037.14
2019-01-03T00:58:52.965Z,1037.13
2019-01-03T00:59:18.517Z,1037.12
2019-01-03T00:59:44.096Z,1037.14
2019-01-03T01:00:09.651Z,1037.11
2019-01-03T01:00:35.211Z,1037.12
2019-01-03T01:01:00.797Z,1037.1
2019-01-03T01:01:26.377Z,1037.08
2019-01-03T01:01:51.953Z,1037.1
2019-01-03T01:02:17.525Z,1037.09
2019-01-03T01:02:43.099Z,1037.05
2019-01-03T01:03:08.683Z,1037.05
2019-01-03T01:03:34.248Z,1037.04
2019-01-03T01:03:59.831Z,1037.07
2019-01-03T01:04:25.405Z,1037.08
2019-01-03T01:04:51.015Z,1037.07
2019-01-03T01:05:16.595Z,1037.05
2019-01-03T01:05:42.173Z,1037.04
2019-01-03T01:06:07.746Z,1037.07
2019-01-03T01:06:33.323Z,1037.06
2019-01-03T01:06:58.900Z,1037.13
2019-01-03T01:07:24.481Z,1037.09
2019-01-03T01:07:50.053Z,1037.11
2019-01-03T01:08:15.627Z,1037.09
2019-01-03T01:08:41.207Z,1037.09
2019-01-03T01:09:06.791Z,1037.08
2019-01-03T01:09:32.349Z,1037.07
2019-01-03T01:09:57.933Z,1037.06
2019-01-03T01:10:23.525Z,1037.05
2019-01-03T01:10:49.091Z,1037.04
2019-01-03T01:11:14.686Z,1037.03
2019-01-03T01:11:40.216Z,1037.02
2019-01-03T01:12:05.783Z,1037.07
2019-01-03T01:12:31.357Z,1037.07
2019-01-03T01:12:56.941Z,1037.06
2019-01-03T01:13:22.517Z,1037.08
2019-01-03T01:13:48.103Z,1037.07
2019-01-03T01:14:13.684Z,1037.1
2019-01-03T01:14:39.234Z,1037.09
2019-01-03T01:15:04.814Z,1037.12
2019-01-03T01:15:30.394Z,1037.1
2019-01-03T01:15:55.982Z,1037.09
2019-01-03T01:16:21.536Z,1037.1
2019-01-03T01:16:47.108Z,1037.09
2019-01-03T01:17:12.697Z,1037.08
2019-01-03T01:17:38.292Z,1037.15
2019-01-03T01:18:03.861Z,1037.11
2019-01-03T01:18:29.452Z,1037.1
2019-01-03T01:18:55.005Z,1037.17
2019-01-03T01:19:20.586Z,1037.2
2019-01-03T01:19:46.171Z,1037.17
2019-01-03T01:20:11.733Z,1037.19
2019-01-03T01:20:37.299Z,1037.16
2019-01-03T01:21:02.868Z,1037.13
2019-01-03T01:21:28.453Z,1037.07
2019-01-03T01:21:54.046Z,1037.08
2019-01-03T01:22:19.596Z,1037.02
2019-01-03T01:22:45.177Z,1037.06
2019-01-03T01:23:10.751Z,1037.04
2019-01-03T01:23:36.339Z,1037.06
2019-01-03T01:24:01.895Z,1037.08
2019-01-03T01:24:27.463Z,1037.09
2019-01-03T01:24:53.047Z,1037.14
2019-01-03T01:25:18.626Z,1037.15
2019-01-03T01:25:44.179Z,1037.12
2019-01-03T01:26:09.782Z,1037.11
2019-01-03T01:26:35.349Z,1037.09
2019-01-03T01:27:00.925Z,1037.06
2019-01-03T01:27:26.498Z,1037.09
2019-01-03T01:27:52.071Z,1037.07
2019-01-03T01:28:17.632Z,1037.06
2019-01-03T01:28:43.223Z,1037.07
2019-01-03T01:29:08.790Z,1037.03
2019-01-03T01:29:34.365Z,1037.04
2019-01-03T01:29:59.925Z,1037.02
2019-01-03T01:30:25.491Z,1037
2019-01-03T01:30:51.074Z,1037
2019-01-03T01:31:16.629Z,1036.97
2019-01-03T01:31:42.221Z,1036.94
2019-01-03T01:32:07.785Z,1036.96
2019-01-03T01:32:33.372Z,1036.97
2019-01-03T01:32:58.949Z,1036.91
2019-01-03T01:33:24.521Z,1036.9
2019-01-03T01:33:50.081Z,1036.91
2019-01-03T01:34:15.661Z,1036.92
2019-01-03T01:34:41.257Z,1036.91
2019-01-03T01:35:06.847Z,1036.89
2019-01-03T01:35:32.424Z,1036.96
2019-01-03T01:35:58.011Z,1036.91
2019-01-03T01:36:23.576Z,1036.95
2019-01-03T01:36:49.144Z,1036.93
2019-01-03T01:37:14.727Z,1036.93
2019-01-03T01:37:40.295Z,1036.9
2019-01-03T01:38:05.881Z,1036.91
2019-01-03T01:38:31.455Z,1036.89
2019-01-03T01:38:57.034Z,1036.96
2019-01-03T01:39:22.607Z,1036.96
2019-01-03T01:39:48.186Z,1036.94
2019-01-03T01:40:13.763Z,1036.92
2019-01-03T01:40:39.348Z,1036.9
2019-01-03T01:41:04.918Z,1036.92
2019-01-03T01:41:30.510Z,1036.92
2019-01-03T01:41:56.105Z,1036.91
2019-01-03T01:42:21.663Z,1036.85
2019-01-03T01:42:47.242Z,1036.91
2019-01-03T01:43:12.817Z,1036.88
2019-01-03T01:43:38.410Z,1036.85
2019-01-03T01:44:03.975Z,1036.88
2019-01-03T01:44:29.546Z,1036.82
2019-01-03T01:44:55.117Z,1036.84
2019-01-03T01:45:20.690Z,1036.82
2019-01-03T01:45:46.251Z,1036.81
2019-01-03T01:46:11.816Z,1036.81
2019-01-03T01:46:37.384Z,1036.72
2019-01-03T01:47:02.955Z,1036.73
2019-01-03T01:47:28.527Z,1036.74
2019-01-03T01:47:54.105Z,1036.78
2019-01-03T01:48:19.673Z,1036.76
2019-01-03T01:48:45.247Z,1036.77
2019-01-03T01:49:10.819Z,1036.77
2019-01-03T01:49:36.384Z,1036.75
2019-01-03T01:50:01.959Z,1036.8
2019-01-03T01:50:27.513Z,1036.77
2019-01-03T01:50:53.071Z,1036.76
2019-01-03T01:51:18.639Z,1036.79
2019-01-03T01:51:44.214Z,1036.82
2019-01-03T01:52:09.783Z,1036.76
2019-01-03T01:52:35.364Z,1036.82
2019-01-03T01:53:00.930Z,1036.86
2019-01-03T01:53:26.506Z,1036.83
2019-01-03T01:53:52.072Z,1036.85
2019-01-03T01:54:17.652Z,1036.88
2019-01-03T01:54:43.225Z,1036.92
2019-01-03T01:55:08.780Z,1036.94
2019-01-03T01:55:34.355Z,1036.92
2019-01-03T01:55:59.943Z,1036.95
2019-01-03T01:56:25.520Z,1037
2019-01-03T01:56:51.090Z,1036.97
2019-01-03T01:57:16.650Z,1036.95
2019-01-03T01:57:42.236Z,1036.99
2019-01-03T01:58:07.805Z,1037
2019-01-03T01:58:33.380Z,1037.02
2019-01-03T01:58:58.955Z,1036.99
2019-01-03T01:59:24.542Z,1037.02
2019-01-03T01:59:50.110Z,1037.03
2019-01-03T02:01:37.331Z,1036.92
2019-01-03T02:02:02.920Z,1036.94
2019-01-03T02:04:10.359Z,1036.94
2019-01-03T02:04:35.943Z,1036.96
2019-01-03T02:05:01.515Z,1036.9
2019-01-03T02:05:27.087Z,1036.92
2019-01-03T02:05:52.655Z,1036.89
2019-01-03T02:06:18.217Z,1036.93
2019-01-03T02:06:43.790Z,1036.95
2019-01-03T02:07:09.382Z,1036.98
2019-01-03T02:07:34.953Z,1036.95
2019-01-03T02:08:00.512Z,1036.94
2019-01-03T02:08:26.116Z,1036.93
2019-01-03T02:08:51.690Z,1036.96
2019-01-03T02:09:17.262Z,1036.97
2019-01-03T02:09:42.845Z,1036.95
2019-01-03T02:10:08.400Z,1036.97
2019-01-03T02:10:33.970Z,1037
2019-01-03T02:10:59.541Z,1036.99
2019-01-03T02:11:25.105Z,1036.98
2019-01-03T02:11:50.683Z,1037.03
2019-01-03T02:12:16.302Z,1037
2019-01-03T02:12:41.870Z,1037.04
2019-01-03T02:13:07.432Z,1037.07
2019-01-03T02:13:32.995Z,1037.05
2019-01-03T02:13:58.582Z,1037.05
2019-01-03T02:14:24.161Z,1037.06
2019-01-03T02:14:49.737Z,1037.02
2019-01-03T02:15:15.306Z,1037.09
2019-01-03T02:15:40.877Z,1037.04
2019-01-03T02:16:06.440Z,1037.09
2019-01-03T02:16:32.012Z,1037.08
2019-01-03T02:16:57.587Z,1037.09
2019-01-03T02:17:23.155Z,1037.1
2019-01-03T02:17:48.728Z,1037.1
2019-01-03T02:18:14.300Z,1037.07
2019-01-03T02:18:39.856Z,1037.13
2019-01-03T02:19:05.418Z,1037.12
2019-01-03T02:19:30.996Z,1037.1
2019-01-03T02:19:56.568Z,1037.12
2019-01-03T02:20:22.142Z,1037.08
2019-01-03T02:20:47.724Z,1037.12
2019-01-03T02:21:13.264Z,1037.1
2019-01-03T02:21:38.842Z,1037.1
2019-01-03T02:22:04.428Z,1037.07
2019-01-03T02:22:29.980Z,1037.03
2019-01-03T02:22:55.535Z,1037.06
2019-01-03T02:23:21.105Z,1037.06
2019-01-03T02:23:46.679Z,1037.03
2019-01-03T02:24:12.252Z,1037.02
2019-01-03T02:24:37.835Z,1037.01
2019-01-03T02:25:03.404Z,1037.06
2019-01-03T02:25:28.955Z,1037.01
2019-01-03T02:25:54.528Z,1037.04
2019-01-03T02:26:20.096Z,1037.05
2019-01-03T02:26:45.679Z,1037.06
2019-01-03T02:27:11.267Z,1037.1
2019-01-03T02:27:36.856Z,1037.09
2019-01-03T02:28:02.438Z,1037.11
2019-01-03T02:28:28.019Z,1037.09
2019-01-03T02:28:53.582Z,1037.12
2019-01-03T02:29:19.162Z,1037.1
2019-01-03T02:29:44.734Z,1037.16
2019-01-03T02:30:10.300Z,1037.12
2019-01-03T02:30:35.888Z,1037.13
2019-01-03T02:31:01.461Z,1037.14
2019-01-03T02:31:27.028Z,1037.12
2019-01-03T02:31:52.589Z,1037.14
2019-01-03T02:32:18.174Z,1037.15
2019-01-03T02:32:43.752Z,1037.16
2019-01-03T02:33:09.316Z,1037.13
2019-01-03T02:33:34.883Z,1037.11
2019-01-03T02:34:00.449Z,1037.11
2019-01-03T02:34:25.993Z,1037.11
2019-01-03T02:34:51.568Z,1037.11
2019-01-03T02:35:17.147Z,1037.11
2019-01-03T02:35:42.726Z,1037.12
2019-01-03T02:36:08.288Z,1037.08
2019-01-03T02:36:33.872Z,1037.1
2019-01-03T02:36:59.458Z,1037.07
2019-01-03T02:37:25.000Z,1037.04
2019-01-03T02:37:50.568Z,1037.05
2019-01-03T02:38:16.142Z,1037.05
2019-01-03T02:38:41.706Z,1037.02
2019-01-03T02:39:07.282Z,1037.05
2019-01-03T02:39:32.866Z,1037
2019-01-03T02:39:58.431Z,1037.02
2019-01-03T02:40:24.004Z,1037.01
2019-01-03T02:40:49.557Z,1036.99
2019-01-03T02:41:15.111Z,1036.98
2019-01-03T02:41:40.682Z,1037.02
2019-01-03T02:42:06.256Z,1036.95
2019-01-03T02:42:31.828Z,1036.99
2019-01-03T02:42:57.391Z,1036.94
2019-01-03T02:43:22.961Z,1036.95
2019-01-03T02:43:48.538Z,1036.94
2019-01-03T02:44:14.100Z,1036.95
2019-01-03T02:44:39.676Z,1036.92
2019-01-03T02:45:05.235Z,1036.91
2019-01-03T02:45:30.794Z,1036.96
2019-01-03T02:45:56.351Z,1036.93
2019-01-03T02:46:21.930Z,1036.92
2019-01-03T02:46:47.474Z,1036.93
2019-01-03T02:47:13.054Z,1036.93
2019-01-03T02:47:38.665Z,1036.93
2019-01-03T02:48:04.234Z,1036.9
2019-01-03T02:48:29.825Z,1036.91
2019-01-03T02:48:55.420Z,1036.93
2019-01-03T02:49:20.976Z,1036.89
2019-01-03T02:49:46.554Z,1036.89
2019-01-03T02:50:12.127Z,1036.88
2019-01-03T02:50:37.680Z,1036.89
2019-01-03T02:51:03.245Z,1036.9
2019-01-03T02:51:28.844Z,1036.87
2019-01-03T02:51:54.401Z,1036.81
2019-01-03T02:52:19.962Z,1036.78
2019-01-03T02:52:45.542Z,1036.76
2019-01-03T02:53:11.119Z,1036.73
2019-01-03T02:53:36.705Z,1036.72
2019-01-03T02:54:02.284Z,1036.78
2019-01-03T02:54:27.855Z,1036.71
2019-01-03T02:54:53.437Z,1036.8
2019-01-03T02:55:19.006Z,1036.78
2019-01-03T02:55:44.579Z,1036.81
2019-01-03T02:56:10.164Z,1036.82
2019-01-03T02:56:35.730Z,1036.81
2019-01-03T02:57:01.313Z,1036.79
2019-01-03T02:57:26.875Z,1036.77
2019-01-03T02:57:52.461Z,1036.78
2019-01-03T02:58:18.015Z,1036.78
2019-01-03T02:58:43.589Z,1036.77
2019-01-03T02:59:09.152Z,1036.78
2019-01-03T02:59:34.728Z,1036.73
2019-01-03T03:00:00.305Z,1036.72
2019-01-03T03:00:25.849Z,1036.74
2019-01-03T03:00:51.432Z,1036.76
2019-01-03T03:01:17.010Z,1036.75
2019-01-03T03:01:42.599Z,1036.74
2019-01-03T03:02:08.167Z,1036.71
2019-01-03T03:02:33.748Z,1036.71
2019-01-03T03:02:59.303Z,1036.76
2019-01-03T03:03:24.881Z,1036.72
2019-01-03T03:03:50.468Z,1036.74
2019-01-03T03:04:16.043Z,1036.75
2019-01-03T03:04:41.614Z,1036.78
2019-01-03T03:05:07.183Z,1036.75
2019-01-03T03:05:32.750Z,1036.82
2019-01-03T03:05:58.342Z,1036.8
2019-01-03T03:06:23.876Z,1036.77
2019-01-03T03:06:49.440Z,1036.79
2019-01-03T03:07:15.014Z,1036.77
2019-01-03T03:07:40.598Z,1036.77
2019-01-03T03:08:06.170Z,1036.83
2019-01-03T03:08:31.734Z,1036.78
2019-01-03T03:08:57.314Z,1036.79
2019-01-03T03:09:22.886Z,1036.85
2019-01-03T03:09:48.448Z,1036.81
2019-01-03T03:10:14.039Z,1036.82
2019-01-03T03:10:39.615Z,1036.86
2019-01-03T03:11:05.174Z,1036.79
2019-01-03T03:11:30.752Z,1036.81
2019-01-03T03:11:56.315Z,1036.8
2019-01-03T03:12:21.875Z,1036.82
2019-01-03T03:12:47.447Z,1036.8
2019-01-03T03:13:13.011Z,1036.82
2019-01-03T03:13:38.568Z,1036.81
2019-01-03T03:14:04.142Z,1036.78
2019-01-03T03:14:29.708Z,1036.82
2019-01-03T03:14:55.293Z,1036.78
2019-01-03T03:15:20.880Z,1036.78
2019-01-03T03:15:46.451Z,1036.81
2019-01-03T03:16:12.022Z,1036.76
2019-01-03T03:16:37.585Z,1036.81
2019-01-03T03:17:03.177Z,1036.81
2019-01-03T03:17:28.737Z,1036.8
2019-01-03T03:17:54.304Z,1036.81
2019-01-03T03:18:19.856Z,1036.75
2019-01-03T03:18:45.463Z,1036.82
2019-01-03T03:19:11.031Z,1036.72
2019-01-03T03:19:36.600Z,1036.78
2019-01-03T03:20:02.168Z,1036.76
2019-01-03T03:20:27.745Z,1036.82
2019-01-03T03:20:53.309Z,1036.77
2019-01-03T03:21:18.879Z,1036.75
2019-01-03T03:21:44.451Z,1036.74
2019-01-03T03:22:10.011Z,1036.76
2019-01-03T03:22:35.578Z,1036.73
2019-01-03T03:23:01.129Z,1036.72
2019-01-03T03:23:26.706Z,1036.7
2019-01-03T03:23:52.293Z,1036.71
2019-01-03T03:24:17.882Z,1036.69
2019-01-03T03:24:43.447Z,1036.64
2019-01-03T03:25:09.041Z,1036.68
2019-01-03T03:25:34.621Z,1036.66
2019-01-03T03:26:00.212Z,1036.64
2019-01-03T03:26:25.783Z,1036.68
2019-01-03T03:26:51.342Z,1036.61
2019-01-03T03:27:16.918Z,1036.66
2019-01-03T03:27:42.487Z,1036.67
2019-01-03T03:28:08.065Z,1036.67
2019-01-03T03:28:33.633Z,1036.65
2019-01-03T03:28:59.216Z,1036.66
2019-01-03T03:29:24.785Z,1036.71
2019-01-03T03:29:50.365Z,1036.69
2019-01-03T03:30:15.930Z,1036.66
2019-01-03T03:30:41.520Z,1036.69
2019-01-03T03:31:07.093Z,1036.71
2019-01-03T03:31:32.699Z,1036.66
2019-01-03T03:31:58.277Z,1036.66
2019-01-03T03:32:23.866Z,1036.65
2019-01-03T03:32:49.422Z,1036.65
2019-01-03T03:33:15.015Z,1036.64
2019-01-03T03:33:40.573Z,1036.67
2019-01-03T03:34:06.136Z,1036.64
2019-01-03T03:34:31.709Z,1036.62
2019-01-03T03:34:57.304Z,1036.68
2019-01-03T03:35:22.923Z,1036.61
2019-01-03T03:35:48.471Z,1036.68
2019-01-03T03:36:14.031Z,1036.63
2019-01-03T03:36:39.594Z,1036.65
2019-01-03T03:37:05.190Z,1036.64
2019-01-03T03:37:30.750Z,1036.61
2019-01-03T03:37:56.319Z,1036.62
2019-01-03T03:38:21.902Z,1036.63
2019-01-03T03:38:47.507Z,1036.58
2019-01-03T03:39:13.089Z,1036.63
2019-01-03T03:39:38.667Z,1036.56
2019-01-03T03:40:04.235Z,1036.64
2019-01-03T03:40:29.788Z,1036.63
2019-01-03T03:40:55.335Z,1036.62
2019-01-03T03:41:20.909Z,1036.63
2019-01-03T03:41:46.492Z,1036.58
2019-01-03T03:42:12.061Z,1036.61
2019-01-03T03:42:37.632Z,1036.61
2019-01-03T03:43:03.201Z,1036.6
2019-01-03T03:43:28.767Z,1036.54
2019-01-03T03:43:54.323Z,1036.59
2019-01-03T03:44:19.881Z,1036.56
2019-01-03T03:44:45.453Z,1036.59
2019-01-03T03:45:11.025Z,1036.58
2019-01-03T03:45:36.587Z,1036.6
2019-01-03T03:46:02.167Z,1036.64
2019-01-03T03:46:27.727Z,1036.65
2019-01-03T03:46:53.318Z,1036.63
2019-01-03T03:47:18.908Z,1036.66
2019-01-03T03:47:44.462Z,1036.61
2019-01-03T03:48:10.030Z,1036.64
2019-01-03T03:48:35.611Z,1036.63
2019-01-03T03:49:01.191Z,1036.61
2019-01-03T03:49:26.757Z,1036.62
2019-01-03T03:49:52.336Z,1036.57
2019-01-03T03:50:17.896Z,1036.57
2019-01-03T03:50:43.484Z,1036.58
2019-01-03T03:51:09.055Z,1036.54
2019-01-03T03:51:34.623Z,1036.54
2019-01-03T03:52:00.191Z,1036.52
2019-01-03T03:52:25.730Z,1036.51
2019-01-03T03:52:51.301Z,1036.52
2019-01-03T03:53:16.875Z,1036.5
2019-01-03T03:53:42.461Z,1036.51
2019-01-03T03:54:08.043Z,1036.54
2019-01-03T03:54:33.619Z,1036.55
2019-01-03T03:54:59.183Z,1036.56
2019-01-03T03:55:24.771Z,1036.54
2019-01-03T03:55:50.322Z,1036.53
2019-01-03T03:56:15.900Z,1036.56
2019-01-03T03:56:41.443Z,1036.51
2019-01-03T03:57:07.015Z,1036.62
2019-01-03T03:57:32.597Z,1036.58
2019-01-03T03:57:58.157Z,1036.59
2019-01-03T03:58:23.721Z,1036.56
2019-01-03T03:58:49.313Z,1036.58
2019-01-03T03:59:14.903Z,1036.59
2019-01-03T03:59:40.458Z,1036.56
2019-01-03T04:00:06.041Z,1036.53
2019-01-03T04:00:31.593Z,1036.59
2019-01-03T04:00:57.172Z,1036.56
2019-01-03T04:01:22.754Z,1036.6
2019-01-03T04:01:48.314Z,1036.61
2019-01-03T04:02:13.875Z,1036.6
2019-01-03T04:02:39.452Z,1036.57
2019-01-03T04:03:05.016Z,1036.57
2019-01-03T04:03:30.599Z,1036.6
2019-01-03T04:03:56.173Z,1036.58
2019-01-03T04:04:21.731Z,1036.6
2019-01-03T04:04:47.309Z,1036.58
2019-01-03T04:05:12.865Z,1036.58
2019-01-03T04:05:38.427Z,1036.56
2019-01-03T04:06:04.006Z,1036.55
2019-01-03T04:06:29.585Z,1036.6
2019-01-03T04:06:55.153Z,1036.6
2019-01-03T04:07:20.716Z,1036.6
2019-01-03T04:07:46.302Z,1036.56
2019-01-03T04:08:11.887Z,1036.58
2019-01-03T04:08:38.697Z,1036.57
2019-01-03T04:09:03.025Z,1036.63
2019-01-03T04:09:28.597Z,1036.58
2019-01-03T04:09:54.185Z,1036.55
2019-01-03T04:10:19.752Z,1036.59
2019-01-03T04:10:45.323Z,1036.58
2019-01-03T04:11:10.875Z,1036.56
2019-01-03T04:11:36.424Z,1036.55
2019-01-03T04:12:01.995Z,1036.53
2019-01-03T04:12:27.577Z,1036.55
2019-01-03T04:12:53.138Z,1036.54
2019-01-03T04:13:18.725Z,1036.54
2019-01-03T04:13:44.299Z,1036.57
2019-01-03T04:14:09.874Z,1036.54
2019-01-03T04:14:35.450Z,1036.56
2019-01-03T04:15:01.026Z,1036.53
2019-01-03T04:15:26.599Z,1036.54
2019-01-03T04:15:52.172Z,1036.54
2019-01-03T04:16:17.757Z,1036.53
2019-01-03T04:16:43.333Z,1036.58
2019-01-03T04:17:08.900Z,1036.58
2019-01-03T04:17:34.463Z,1036.54
2019-01-03T04:18:00.055Z,1036.55
2019-01-03T04:18:25.609Z,1036.58
2019-01-03T04:18:51.187Z,1036.59
2019-01-03T04:19:16.817Z,1036.61
2019-01-03T04:19:42.353Z,1036.61
2019-01-03T04:20:07.919Z,1036.58
2019-01-03T04:20:33.505Z,1036.59
2019-01-03T04:20:59.105Z,1036.57
2019-01-03T04:21:24.678Z,1036.57
2019-01-03T04:21:50.232Z,1036.59
2019-01-03T04:22:15.792Z,1036.58
2019-01-03T04:22:41.371Z,1036.6
2019-01-03T04:23:06.989Z,1036.61
2019-01-03T04:23:32.572Z,1036.63
2019-01-03T04:23:58.156Z,1036.61
2019-01-03T04:24:23.717Z,1036.68
2019-01-03T04:24:49.309Z,1036.65
2019-01-03T04:25:14.866Z,1036.63
2019-01-03T04:25:40.429Z,1036.66
2019-01-03T04:26:05.996Z,1036.67
2019-01-03T04:26:31.564Z,1036.67
2019-01-03T04:26:57.139Z,1036.66
2019-01-03T04:27:22.692Z,1036.65
2019-01-03T04:27:48.262Z,1036.69
2019-01-03T04:28:13.836Z,1036.64
2019-01-03T04:28:39.394Z,1036.67
2019-01-03T04:29:05.004Z,1036.69
2019-01-03T04:29:30.565Z,1036.67
2019-01-03T04:29:56.125Z,1036.7
2019-01-03T04:30:21.702Z,1036.65
2019-01-03T04:30:47.278Z,1036.67
2019-01-03T04:31:12.848Z,1036.67
2019-01-03T04:31:38.422Z,1036.64
2019-01-03T04:32:03.999Z,1036.66
2019-01-03T04:32:29.557Z,1036.62
2019-01-03T04:32:55.134Z,1036.66
2019-01-03T04:33:20.699Z,1036.66
2019-01-03T04:33:46.266Z,1036.67
2019-01-03T04:34:11.839Z,1036.65
2019-01-03T04:34:37.402Z,1036.68
2019-01-03T04:35:02.977Z,1036.63
2019-01-03T04:35:28.551Z,1036.63
2019-01-03T04:35:54.111Z,1036.65
2019-01-03T04:36:19.711Z,1036.68
2019-01-03T04:36:45.279Z,1036.67
2019-01-03T04:37:10.847Z,1036.68
2019-01-03T04:37:36.439Z,1036.66
2019-01-03T04:38:02.011Z,1036.69
2019-01-03T04:38:27.576Z,1036.7
2019-01-03T04:38:53.157Z,1036.65
2019-01-03T04:39:18.707Z,1036.68
2019-01-03T04:39:44.282Z,1036.71
2019-01-03T04:40:09.846Z,1036.66
2019-01-03T04:40:35.411Z,1036.68
2019-01-03T04:41:01.009Z,1036.69
2019-01-03T04:41:26.588Z,1036.68
2019-01-03T04:41:52.156Z,1036.64
2019-01-03T04:42:17.718Z,1036.65
2019-01-03T04:42:43.306Z,1036.64
2019-01-03T04:43:08.868Z,1036.59
2019-01-03T04:43:34.445Z,1036.63
2019-01-03T04:44:00.016Z,1036.62
2019-01-03T04:44:25.585Z,1036.62
2019-01-03T04:44:51.148Z,1036.63
2019-01-03T04:45:16.710Z,1036.62
2019-01-03T04:45:42.286Z,1036.66
2019-01-03T04:46:07.859Z,1036.66
2019-01-03T04:46:33.430Z,1036.67
2019-01-03T04:46:59.000Z,1036.68
2019-01-03T04:47:24.569Z,1036.73
2019-01-03T04:47:50.166Z,1036.72
2019-01-03T04:48:15.740Z,1036.72
2019-01-03T04:48:41.311Z,1036.71
2019-01-03T04:49:06.897Z,1036.75
2019-01-03T04:49:32.484Z,1036.7
2019-01-03T04:49:58.065Z,1036.71
2019-01-03T04:50:23.630Z,1036.74
2019-01-03T04:50:49.196Z,1036.72
2019-01-03T04:51:14.754Z,1036.74
2019-01-03T04:51:40.344Z,1036.77
2019-01-03T04:52:05.922Z,1036.77
2019-01-03T04:52:31.492Z,1036.74
2019-01-03T04:52:57.076Z,1036.71
2019-01-03T04:53:22.620Z,1036.71
2019-01-03T04:53:48.180Z,1036.72
2019-01-03T04:54:13.761Z,1036.73
2019-01-03T04:54:39.327Z,1036.73
2019-01-03T04:55:04.892Z,1036.74
2019-01-03T04:55:30.448Z,1036.7
2019-01-03T04:55:56.032Z,1036.73
2019-01-03T04:56:21.604Z,1036.68
2019-01-03T04:56:47.155Z,1036.69
2019-01-03T04:57:12.726Z,1036.68
2019-01-03T04:57:38.318Z,1036.68
2019-01-03T04:58:03.916Z,1036.67
2019-01-03T04:58:29.479Z,1036.67
2019-01-03T04:58:55.038Z,1036.65
2019-01-03T04:59:20.604Z,1036.64
2019-01-03T04:59:46.184Z,1036.72
2019-01-03T05:00:11.744Z,1036.72
2019-01-03T05:00:37.323Z,1036.68
2019-01-03T05:01:02.896Z,1036.66
2019-01-03T05:01:28.480Z,1036.69
2019-01-03T05:01:54.044Z,1036.69
2019-01-03T05:02:19.626Z,1036.73
2019-01-03T05:02:45.184Z,1036.71
2019-01-03T05:03:10.740Z,1036.73
2019-01-03T05:03:36.306Z,1036.79
2019-01-03T05:04:01.912Z,1036.77
2019-01-03T05:04:27.484Z,1036.75
2019-01-03T05:04:53.085Z,1036.76
2019-01-03T05:05:18.648Z,1036.79
2019-01-03T05:05:44.228Z,1036.76
2019-01-03T05:06:09.804Z,1036.74
2019-01-03T05:06:35.366Z,1036.8
2019-01-03T05:07:00.947Z,1036.79
2019-01-03T05:07:26.531Z,1036.79
2019-01-03T05:07:52.088Z,1036.76
2019-01-03T05:08:17.668Z,1036.77
2019-01-03T05:08:43.242Z,1036.79
2019-01-03T05:09:08.825Z,1036.74
2019-01-03T05:09:34.377Z,1036.78
2019-01-03T05:09:59.945Z,1036.76
2019-01-03T05:10:25.516Z,1036.73
2019-01-03T05:10:51.072Z,1036.72
2019-01-03T05:11:16.664Z,1036.75
2019-01-03T05:11:42.234Z,1036.72
2019-01-03T05:12:07.814Z,1036.66
2019-01-03T05:12:33.390Z,1036.67
2019-01-03T05:12:58.960Z,1036.69
2019-01-03T05:13:24.524Z,1036.64